createdAt,value
2023-05-30T00:00:19.636Z,102253.44
2023-05-30T00:02:49.578Z,102246.31
2023-05-30T00:05:19.354Z,102249.88
2023-05-30T00:07:49.053Z,102250.94
2023-05-30T00:10:18.771Z,102254.34
2023-05-30T00:12:51.252Z,102249.97
2023-05-30T00:15:21.080Z,102255.13
2023-05-30T00:17:53.902Z,102249.75
2023-05-30T00:20:24.062Z,102255.00
2023-05-30T00:22:53.936Z,102251.44
2023-05-30T00:25:23.658Z,102249.63
2023-05-30T00:27:55.984Z,102251.31
2023-05-30T00:30:25.876Z,102254.72
2023-05-30T00:32:55.864Z,102249.34
2023-05-30T00:35:28.934Z,102245.72
2023-05-30T00:37:58.800Z,102252.72
2023-05-30T00:40:29.231Z,102240.47
2023-05-30T00:43:02.552Z,102245.59
2023-05-30T00:45:32.275Z,102244.38
2023-05-30T00:48:02.579Z,102241.84
2023-05-30T00:50:36.138Z,102240.84
2023-05-30T00:53:05.893Z,102243.34
2023-05-30T00:55:36.495Z,102246.84
2023-05-30T00:58:09.290Z,102242.41
2023-05-30T01:00:41.448Z,102244.91
2023-05-30T01:03:11.336Z,102236.06
2023-05-30T01:05:41.149Z,102237.59
2023-05-30T01:08:12.073Z,102235.03
2023-05-30T01:10:41.849Z,102242.78
2023-05-30T01:13:22.192Z,102235.81
2023-05-30T01:15:56.670Z,102238.09
2023-05-30T01:18:31.574Z,102241.44
2023-05-30T01:21:04.773Z,102245.53
2023-05-30T01:24:01.709Z,102241.91
2023-05-30T01:26:41.426Z,102239.16
2023-05-30T01:29:19.019Z,102243.56
2023-05-30T01:31:49.535Z,102250.50
2023-05-30T01:34:19.474Z,102252.44
2023-05-30T01:36:49.196Z,102248.03
2023-05-30T01:39:19.359Z,102255.91
2023-05-30T01:41:55.000Z,102253.00
2023-05-30T01:44:33.207Z,102253.19
2023-05-30T01:47:07.139Z,102246.91
2023-05-30T01:49:42.060Z,102244.28
2023-05-30T01:52:15.772Z,102245.25
2023-05-30T01:54:49.291Z,102246.91
2023-05-30T01:57:20.328Z,102250.28
2023-05-30T01:59:53.061Z,102256.38
2023-05-30T02:02:22.766Z,102254.72
2023-05-30T02:04:52.663Z,102249.03
2023-05-30T02:07:23.592Z,102256.75
2023-05-30T02:09:53.343Z,102251.22
2023-05-30T02:12:23.119Z,102255.56
2023-05-30T02:14:55.999Z,102252.09
2023-05-30T02:17:26.695Z,102256.31
2023-05-30T02:19:58.612Z,102251.22
2023-05-30T02:22:28.405Z,102255.97
2023-05-30T02:24:58.580Z,102268.94
2023-05-30T02:27:28.578Z,102272.56
2023-05-30T02:30:01.029Z,102267.16
2023-05-30T02:32:31.008Z,102271.38
2023-05-30T02:35:01.494Z,102274.81
2023-05-30T02:37:31.712Z,102290.28
2023-05-30T02:40:01.934Z,102285.72
2023-05-30T02:42:31.843Z,102278.75
2023-05-30T02:45:04.454Z,102285.81
2023-05-30T02:47:34.422Z,102278.69
2023-05-30T02:50:04.212Z,102290.00
2023-05-30T02:52:34.264Z,102286.56
2023-05-30T02:55:06.132Z,102288.28
2023-05-30T02:57:38.402Z,102290.81
2023-05-30T03:00:14.741Z,102288.94
2023-05-30T03:02:51.179Z,102292.28
2023-05-30T03:05:21.087Z,102296.91
2023-05-30T03:07:53.206Z,102297.56
2023-05-30T03:10:23.140Z,102295.69
2023-05-30T03:12:54.425Z,102296.34
2023-05-30T03:15:28.040Z,102308.38
2023-05-30T03:17:59.088Z,102303.09
2023-05-30T03:20:32.751Z,102305.69
2023-05-30T03:23:03.685Z,102305.63
2023-05-30T03:25:34.144Z,102305.69
2023-05-30T03:28:07.555Z,102305.47
2023-05-30T03:30:46.601Z,102307.03
2023-05-30T03:33:16.408Z,102309.81
2023-05-30T03:35:47.064Z,102306.41
2023-05-30T03:38:16.871Z,102304.56
2023-05-30T03:40:46.719Z,102306.66
2023-05-30T03:43:16.409Z,102303.94
2023-05-30T03:45:49.143Z,102317.31
2023-05-30T03:48:18.908Z,102309.50
2023-05-30T03:50:48.674Z,102322.53
2023-05-30T03:53:18.395Z,102316.56
2023-05-30T03:55:48.647Z,102317.69
2023-05-30T03:58:18.405Z,102318.72
2023-05-30T04:00:50.664Z,102313.72
2023-05-30T04:03:22.068Z,102317.75
2023-05-30T04:05:52.335Z,102323.06
2023-05-30T04:08:23.611Z,102323.28
2023-05-30T04:10:53.324Z,102323.44
2023-05-30T04:13:24.694Z,102311.50
2023-05-30T04:15:57.113Z,102327.28
2023-05-30T04:18:26.957Z,102320.97
2023-05-30T04:20:57.083Z,102325.91
2023-05-30T04:23:27.439Z,102329.50
2023-05-30T04:25:59.223Z,102328.13
2023-05-30T04:28:31.128Z,102321.38
2023-05-30T04:31:19.034Z,102319.66
2023-05-30T04:33:51.796Z,102318.06
2023-05-30T04:36:22.108Z,102324.34
2023-05-30T04:38:53.934Z,102332.31
2023-05-30T04:41:26.705Z,102324.56
2023-05-30T04:43:59.297Z,102326.50
2023-05-30T04:46:32.013Z,102317.13
2023-05-30T04:49:03.260Z,102316.28
2023-05-30T04:51:35.398Z,102325.28
2023-05-30T04:54:05.163Z,102315.88
2023-05-30T04:56:34.907Z,102315.19
2023-05-30T04:59:04.740Z,102328.25
2023-05-30T05:01:38.101Z,102328.44
2023-05-30T05:04:07.904Z,102325.69
2023-05-30T05:06:37.742Z,102326.66
2023-05-30T05:09:07.463Z,102319.72
2023-05-30T05:11:37.173Z,102327.88
2023-05-30T05:14:06.985Z,102321.81
2023-05-30T05:16:39.438Z,102329.13
2023-05-30T05:19:09.154Z,102327.50
2023-05-30T05:21:39.799Z,102333.56
2023-05-30T05:24:10.914Z,102333.63
2023-05-30T05:26:40.954Z,102327.50
2023-05-30T05:29:11.101Z,102334.00
2023-05-30T05:31:43.791Z,102335.63
2023-05-30T05:34:13.764Z,102341.03
2023-05-30T05:36:45.711Z,102347.03
2023-05-30T05:39:15.746Z,102345.03
2023-05-30T05:41:45.704Z,102345.38
2023-05-30T05:44:15.616Z,102350.03
2023-05-30T05:46:48.218Z,102344.63
2023-05-30T05:49:18.499Z,102352.38
2023-05-30T05:51:48.762Z,102352.69
2023-05-30T05:54:18.742Z,102354.56
2023-05-30T05:56:49.956Z,102359.97
2023-05-30T05:59:19.891Z,102358.84
2023-05-30T06:01:52.668Z,102355.41
2023-05-30T06:04:22.783Z,102351.22
2023-05-30T06:06:52.756Z,102351.50
2023-05-30T06:09:22.767Z,102355.94
2023-05-30T06:11:52.872Z,102356.22
2023-05-30T06:14:22.699Z,102359.91
2023-05-30T06:16:55.258Z,102346.97
2023-05-30T06:19:25.489Z,102352.28
2023-05-30T06:21:55.480Z,102357.84
2023-05-30T06:24:25.542Z,102352.59
2023-05-30T06:26:55.659Z,102355.34
2023-05-30T06:29:25.681Z,102357.00
2023-05-30T06:32:13.905Z,102365.84
2023-05-30T06:34:45.861Z,102363.22
2023-05-30T06:37:16.006Z,102357.63
2023-05-30T06:39:46.093Z,102367.44
2023-05-30T06:42:16.165Z,102374.66
2023-05-30T06:44:49.390Z,102381.34
2023-05-30T06:47:21.892Z,102387.44
2023-05-30T06:49:51.870Z,102382.31
2023-05-30T06:52:23.941Z,102379.69
2023-05-30T06:54:54.144Z,102380.25
2023-05-30T06:57:24.294Z,102383.84
2023-05-30T06:59:54.265Z,102387.44
2023-05-30T07:02:26.915Z,102390.25
2023-05-30T07:04:57.098Z,102383.34
2023-05-30T07:07:27.131Z,102381.84
2023-05-30T07:09:57.154Z,102380.38
2023-05-30T07:12:28.003Z,102386.28
2023-05-30T07:14:58.148Z,102383.50
2023-05-30T07:17:31.126Z,102380.88
2023-05-30T07:20:01.147Z,102380.13
2023-05-30T07:22:31.127Z,102385.84
2023-05-30T07:25:01.106Z,102383.22
2023-05-30T07:27:31.141Z,102391.16
2023-05-30T07:30:01.581Z,102390.63
2023-05-30T07:32:34.326Z,102384.47
2023-05-30T07:35:04.508Z,102391.53
2023-05-30T07:37:34.418Z,102395.91
2023-05-30T07:40:08.494Z,102390.13
2023-05-30T07:42:54.026Z,102387.00
2023-05-30T07:45:24.307Z,102391.59
2023-05-30T07:48:04.141Z,102392.03
2023-05-30T07:50:34.327Z,102393.72
2023-05-30T07:53:04.410Z,102394.00
2023-05-30T07:55:35.149Z,102383.84
2023-05-30T07:58:05.119Z,102383.97
2023-05-30T08:00:36.081Z,102383.97
2023-05-30T08:03:09.119Z,102388.38
2023-05-30T08:05:48.190Z,102384.22
2023-05-30T08:08:18.369Z,102387.00
2023-05-30T08:11:50.811Z,102392.22
2023-05-30T08:20:14.136Z,102395.56
2023-05-30T08:22:48.894Z,102393.16
2023-05-30T08:25:34.291Z,102400.34
2023-05-30T08:28:09.314Z,102389.06
2023-05-30T08:34:30.442Z,102383.34
2023-05-30T08:38:25.316Z,102392.59
2023-05-30T08:41:53.571Z,102394.50
2023-05-30T08:48:28.316Z,102408.25
2023-05-30T08:51:09.357Z,102407.44
2023-05-30T08:53:47.519Z,102404.47
2023-05-30T08:56:46.746Z,102408.03
2023-05-30T08:59:23.288Z,102402.59
2023-05-30T09:01:55.407Z,102402.41
2023-05-30T09:04:48.169Z,102419.19
2023-05-30T09:07:20.869Z,102421.47
2023-05-30T09:09:52.450Z,102413.25
2023-05-30T09:12:33.864Z,102414.75
2023-05-30T09:15:19.392Z,102417.97
2023-05-30T09:18:09.163Z,102413.19
2023-05-30T09:20:52.041Z,102413.41
2023-05-30T09:23:57.148Z,102420.63
2023-05-30T09:26:32.583Z,102422.00
2023-05-30T09:29:23.708Z,102420.72
2023-05-30T09:32:18.875Z,102423.50
2023-05-30T09:35:25.293Z,102424.97
2023-05-30T09:38:07.467Z,102417.69
2023-05-30T09:43:41.028Z,102425.47
2023-05-30T09:46:50.507Z,102429.38
2023-05-30T09:53:30.272Z,102428.50
2023-05-30T09:56:08.917Z,102423.91
2023-05-30T09:58:55.254Z,102427.13
2023-05-30T10:01:41.306Z,102432.50
2023-05-30T10:04:19.581Z,102429.22
2023-05-30T10:07:02.244Z,102431.34
2023-05-30T10:10:35.734Z,102431.66
2023-05-30T10:13:32.956Z,102432.19
2023-05-30T10:16:05.060Z,102419.66
2023-05-30T10:18:41.053Z,102418.19
2023-05-30T10:21:12.611Z,102424.44
2023-05-30T10:23:44.366Z,102428.75
2023-05-30T10:26:16.531Z,102434.84
2023-05-30T10:28:50.871Z,102437.59
2023-05-30T10:31:26.946Z,102432.88
2023-05-30T10:34:28.206Z,102433.63
2023-05-30T10:37:13.056Z,102430.19
2023-05-30T10:40:00.664Z,102423.19
2023-05-30T10:42:51.876Z,102431.19
2023-05-30T10:45:33.360Z,102431.28
2023-05-30T10:48:17.624Z,102433.81
2023-05-30T10:51:16.850Z,102426.91
2023-05-30T10:54:12.392Z,102436.97
2023-05-30T10:56:58.584Z,102435.22
2023-05-30T11:05:53.295Z,102423.75
2023-05-30T11:08:39.453Z,102401.72
2023-05-30T11:11:27.208Z,102411.78
2023-05-30T11:14:00.048Z,102415.41
2023-05-30T11:16:33.296Z,102408.63
2023-05-30T11:19:15.923Z,102413.38
2023-05-30T11:22:01.910Z,102411.44
2023-05-30T11:24:46.628Z,102409.66
2023-05-30T11:27:29.991Z,102408.19
2023-05-30T11:30:00.431Z,102403.09
2023-05-30T11:32:31.034Z,102399.63
2023-05-30T11:35:05.370Z,102398.19
2023-05-30T11:37:39.727Z,102401.00
2023-05-30T11:40:17.413Z,102403.97
2023-05-30T11:43:23.417Z,102405.09
2023-05-30T11:46:31.298Z,102400.84
2023-05-30T11:49:12.714Z,102405.09
2023-05-30T11:52:10.346Z,102409.59
2023-05-30T11:55:03.485Z,102404.72
2023-05-30T11:57:55.691Z,102403.91
2023-05-30T12:00:34.228Z,102407.38
2023-05-30T12:03:37.761Z,102406.84
2023-05-30T12:06:17.678Z,102403.81
2023-05-30T12:13:14.094Z,102398.22
2023-05-30T12:16:26.168Z,102403.69
2023-05-30T12:19:33.980Z,102399.38
2023-05-30T12:22:51.135Z,102395.88
2023-05-30T12:25:51.082Z,102388.03
2023-05-30T12:28:42.442Z,102386.88
2023-05-30T12:31:51.580Z,102390.69
2023-05-30T12:34:33.731Z,102383.59
2023-05-30T12:37:14.807Z,102397.00
2023-05-30T12:40:19.386Z,102394.38
2023-05-30T12:42:56.593Z,102391.88
2023-05-30T12:45:26.799Z,102393.69
2023-05-30T12:47:59.459Z,102393.75
2023-05-30T12:50:29.524Z,102395.47
2023-05-30T12:52:59.361Z,102391.78
2023-05-30T12:55:29.206Z,102384.72
2023-05-30T12:58:01.115Z,102392.72
2023-05-30T13:00:31.427Z,102381.34
2023-05-30T13:03:04.562Z,102388.59
2023-05-30T13:05:34.706Z,102393.22
2023-05-30T13:08:04.636Z,102392.41
2023-05-30T13:10:34.892Z,102387.25
2023-05-30T13:13:05.104Z,102397.00
2023-05-30T13:15:35.023Z,102384.69
2023-05-30T13:18:07.623Z,102391.19
2023-05-30T13:20:37.655Z,102391.31
2023-05-30T13:23:07.562Z,102391.38
2023-05-30T13:25:37.336Z,102397.66
2023-05-30T13:28:07.228Z,102395.09
2023-05-30T13:30:37.066Z,102392.50
2023-05-30T13:33:09.649Z,102388.03
2023-05-30T13:35:39.512Z,102384.16
2023-05-30T13:38:10.658Z,102390.34
2023-05-30T13:40:40.608Z,102396.69
2023-05-30T13:43:10.735Z,102385.38
2023-05-30T13:45:40.614Z,102391.81
2023-05-30T13:48:15.519Z,102388.34
2023-05-30T13:50:46.738Z,102390.19
2023-05-30T13:53:20.575Z,102393.72
2023-05-30T13:55:54.754Z,102383.16
2023-05-30T13:58:24.624Z,102389.22
2023-05-30T14:00:54.696Z,102387.53
2023-05-30T14:03:27.605Z,102397.09
2023-05-30T14:05:57.565Z,102397.16
2023-05-30T14:08:27.517Z,102405.06
2023-05-30T14:10:58.016Z,102404.81
2023-05-30T14:13:28.380Z,102402.34
2023-05-30T14:15:58.381Z,102401.22
2023-05-30T14:18:31.315Z,102400.41
2023-05-30T14:21:01.400Z,102402.22
2023-05-30T14:23:31.615Z,102405.66
2023-05-30T14:26:01.546Z,102407.34
2023-05-30T14:28:32.932Z,102405.66
2023-05-30T14:31:03.518Z,102407.44
2023-05-30T14:33:36.246Z,102413.66
2023-05-30T14:36:06.346Z,102407.59
2023-05-30T14:38:36.288Z,102411.00
2023-05-30T14:41:06.433Z,102407.59
2023-05-30T14:43:36.525Z,102410.44
2023-05-30T14:46:07.026Z,102404.31
2023-05-30T14:48:39.563Z,102410.56
2023-05-30T14:51:09.572Z,102398.38
2023-05-30T14:53:39.435Z,102397.44
2023-05-30T14:56:09.237Z,102400.78
2023-05-30T14:58:39.308Z,102407.97
2023-05-30T15:01:30.828Z,102406.28
2023-05-30T15:04:02.322Z,102404.44
2023-05-30T15:06:32.223Z,102405.09
2023-05-30T15:09:02.351Z,102398.88
2023-05-30T15:11:33.168Z,102411.47
2023-05-30T15:14:03.791Z,102398.25
2023-05-30T15:16:34.127Z,102397.44
2023-05-30T15:19:06.804Z,102397.44
2023-05-30T15:21:36.831Z,102400.16
2023-05-30T15:24:07.549Z,102401.97
2023-05-30T15:26:37.669Z,102394.84
2023-05-30T15:29:07.740Z,102400.16
2023-05-30T15:31:37.848Z,102389.28
2023-05-30T15:34:10.978Z,102404.31
2023-05-30T15:36:40.988Z,102403.25
2023-05-30T15:39:11.517Z,102407.88
2023-05-30T15:41:41.187Z,102403.59
2023-05-30T15:44:11.112Z,102404.41
2023-05-30T15:46:41.234Z,102404.28
2023-05-30T15:49:13.886Z,102404.44
2023-05-30T15:51:43.794Z,102403.53
2023-05-30T15:54:13.953Z,102406.63
2023-05-30T15:56:43.877Z,102404.03
2023-05-30T15:59:13.998Z,102394.56
2023-05-30T16:01:45.124Z,102400.75
2023-05-30T16:04:17.633Z,102400.81
2023-05-30T16:06:47.936Z,102395.50
2023-05-30T16:09:17.923Z,102403.81
2023-05-30T16:11:47.775Z,102406.13
2023-05-30T16:14:17.676Z,102400.97
2023-05-30T16:16:47.701Z,102399.34
2023-05-30T16:19:20.294Z,102383.66
2023-05-30T16:21:50.324Z,102381.16
2023-05-30T16:24:20.340Z,102381.09
2023-05-30T16:26:50.621Z,102373.06
2023-05-30T16:29:21.337Z,102374.84
2023-05-30T16:31:51.356Z,102379.19
2023-05-30T16:34:23.919Z,102381.81
2023-05-30T16:36:53.879Z,102389.63
2023-05-30T16:39:23.713Z,102392.25
2023-05-30T16:41:53.963Z,102381.66
2023-05-30T16:44:25.923Z,102399.28
2023-05-30T16:46:55.939Z,102396.44
2023-05-30T16:49:28.518Z,102406.06
2023-05-30T16:51:58.784Z,102402.53
2023-05-30T16:54:28.750Z,102392.00
2023-05-30T16:56:58.650Z,102392.88
2023-05-30T16:59:28.702Z,102393.75
2023-05-30T17:01:59.597Z,102390.75
2023-05-30T17:04:32.134Z,102397.25
2023-05-30T17:07:01.908Z,102390.84
2023-05-30T17:09:31.838Z,102391.56
2023-05-30T17:12:03.182Z,102391.72
2023-05-30T17:14:33.125Z,102389.13
2023-05-30T17:17:03.014Z,102382.78
2023-05-30T17:19:35.655Z,102388.03
2023-05-30T17:22:06.077Z,102389.59
2023-05-30T17:24:36.126Z,102387.94
2023-05-30T17:27:06.723Z,102381.75
2023-05-30T17:29:39.439Z,102375.47
2023-05-30T17:32:10.834Z,102376.19
2023-05-30T17:34:43.511Z,102380.53
2023-05-30T17:37:13.571Z,102381.41
2023-05-30T17:39:44.074Z,102376.13
2023-05-30T17:42:14.069Z,102382.41
2023-05-30T17:44:44.128Z,102379.72
2023-05-30T17:47:14.046Z,102379.63
2023-05-30T17:49:47.156Z,102380.53
2023-05-30T17:52:17.133Z,102384.91
2023-05-30T17:54:47.058Z,102382.19
2023-05-30T17:57:16.884Z,102385.72
2023-05-30T17:59:47.149Z,102388.31
2023-05-30T18:02:17.060Z,102389.09
2023-05-30T18:04:49.518Z,102391.63
2023-05-30T18:07:19.354Z,102397.06
2023-05-30T18:09:49.157Z,102389.09
2023-05-30T18:12:19.072Z,102388.97
2023-05-30T18:14:49.482Z,102389.91
2023-05-30T18:17:19.453Z,102396.88
2023-05-30T18:19:52.002Z,102395.88
2023-05-30T18:22:22.036Z,102398.50
2023-05-30T18:24:52.475Z,102395.78
2023-05-30T18:27:22.476Z,102402.94
2023-05-30T18:29:52.502Z,102402.69
2023-05-30T18:32:22.727Z,102401.63
2023-05-30T18:34:55.384Z,102402.44
2023-05-30T18:37:25.188Z,102405.97
2023-05-30T18:39:55.003Z,102404.09
2023-05-30T18:42:25.054Z,102401.28
2023-05-30T18:44:55.030Z,102407.38
2023-05-30T18:47:25.082Z,102403.81
2023-05-30T18:49:57.688Z,102413.38
2023-05-30T18:52:27.535Z,102407.09
2023-05-30T18:54:57.445Z,102396.44
2023-05-30T18:57:27.378Z,102396.38
2023-05-30T19:00:05.646Z,102398.03
2023-05-30T19:05:34.193Z,102409.41
2023-05-30T19:08:04.462Z,102412.78
2023-05-30T19:10:37.669Z,102408.28
2023-05-30T19:13:08.244Z,102408.19
2023-05-30T19:15:38.426Z,102409.75
2023-05-30T19:18:08.962Z,102416.63
2023-05-30T19:20:41.840Z,102414.84
2023-05-30T19:23:11.875Z,102418.34
2023-05-30T19:25:42.119Z,102409.38
2023-05-30T19:28:14.378Z,102413.66
2023-05-30T19:30:44.758Z,102424.97
2023-05-30T19:33:14.714Z,102421.97
2023-05-30T19:35:47.572Z,102422.78
2023-05-30T19:38:17.614Z,102423.56
2023-05-30T19:40:47.625Z,102424.34
2023-05-30T19:43:17.677Z,102427.78
2023-05-30T19:45:47.657Z,102426.88
2023-05-30T19:48:17.854Z,102432.88
2023-05-30T19:50:50.402Z,102434.34
2023-05-30T19:53:20.663Z,102432.47
2023-05-30T19:55:50.580Z,102436.47
2023-05-30T19:58:22.261Z,102434.31
2023-05-30T20:00:53.010Z,102434.19
2023-05-30T20:03:23.752Z,102441.09
2023-05-30T20:05:56.401Z,102439.16
2023-05-30T20:08:26.335Z,102444.31
2023-05-30T20:10:56.706Z,102447.66
2023-05-30T20:13:26.722Z,102446.59
2023-05-30T20:15:56.824Z,102449.13
2023-05-30T20:18:26.985Z,102444.63
2023-05-30T20:20:59.675Z,102441.97
2023-05-30T20:23:29.987Z,102449.78
2023-05-30T20:25:59.938Z,102446.00
2023-05-30T20:28:29.891Z,102436.13
2023-05-30T20:31:00.378Z,102440.38
2023-05-30T20:33:30.718Z,102438.47
2023-05-30T20:36:03.301Z,102441.88
2023-05-30T20:38:33.437Z,102446.06
2023-05-30T20:41:03.567Z,102450.25
2023-05-30T20:43:33.693Z,102454.59
2023-05-30T20:46:03.739Z,102453.53
2023-05-30T20:48:33.885Z,102463.06
2023-05-30T20:51:07.020Z,102454.97
2023-05-30T20:53:36.982Z,102453.06
2023-05-30T20:56:07.586Z,102458.22
2023-05-30T20:58:37.451Z,102451.88
2023-05-30T21:01:08.033Z,102446.47
2023-05-30T21:03:38.050Z,102448.03
2023-05-30T21:06:11.198Z,102447.16
2023-05-30T21:08:41.104Z,102445.16
2023-05-30T21:11:11.032Z,102454.63
2023-05-30T21:13:41.975Z,102440.44
2023-05-30T21:16:12.815Z,102442.03
2023-05-30T21:18:42.782Z,102447.97
2023-05-30T21:21:15.258Z,102444.19
2023-05-30T21:23:45.016Z,102445.09
2023-05-30T21:26:15.034Z,102450.31
2023-05-30T21:28:44.870Z,102449.19
2023-05-30T21:31:14.747Z,102454.25
2023-05-30T21:33:44.516Z,102455.91
2023-05-30T21:36:17.081Z,102453.88
2023-05-30T21:38:46.886Z,102453.75
2023-05-30T21:41:16.768Z,102451.84
2023-05-30T21:43:46.735Z,102449.91
2023-05-30T21:46:16.794Z,102453.28
2023-05-30T21:48:46.726Z,102456.66
2023-05-30T21:51:19.435Z,102457.56
2023-05-30T21:53:49.361Z,102455.84
